This is the latest recevied weather packets stored in our database for station/object W3EJE-13. If no packets are shown the sender has not sent any weather packets the latest 1 day(s).
| Time | Temp. | Humidity | Pressure | Rain* | Wind** | Luminosity | Snow |
|---|---|---|---|---|---|---|---|
| 1777992760 | 20° C | 61% | 1012.9 hPa | 0 mm | 4.02 m/s, 329° | 287 W/m² | - |
| 1777992457 | 20° C | 61% | 1012.8 hPa | 0 mm | 5.36 m/s, 320° | 414 W/m² | - |
| 1777992156 | 20.56° C | 60% | 1013 hPa | 0 mm | 3.58 m/s, 281° | 504 W/m² | - |
| 1777991852 | 20.56° C | 61% | 1012.8 hPa | 0 mm | 5.81 m/s, 6° | 762 W/m² | - |
| 1777991550 | 20.56° C | 60% | 1012.8 hPa | 0 mm | 3.13 m/s, 267° | 713 W/m² | - |
| 1777991255 | 20° C | 63% | 1012.9 hPa | 0 mm | 2.68 m/s, 208° | 585 W/m² | - |
| 1777990944 | 20° C | 61% | 1012.9 hPa | 0 mm | 8.49 m/s, 356° | 501 W/m² | - |
| 1777990642 | 19.44° C | 63% | 1012.7 hPa | 0 mm | 4.47 m/s, 276° | 466 W/m² | - |
| 1777990338 | 20° C | 62% | 1012.5 hPa | 0 mm | 4.02 m/s, 305° | 455 W/m² | - |
| 1777990034 | 19.44° C | 63% | 1012.9 hPa | 0 mm | 2.68 m/s, 22° | 575 W/m² | - |
| 1777989732 | 19.44° C | 62% | 1012.7 hPa | 0 mm | 3.58 m/s, 278° | 412 W/m² | - |
| 1777989428 | 20° C | 62% | 1012.6 hPa | 0 mm | 4.47 m/s, 308° | 281 W/m² | - |
| 1777989124 | 20° C | 62% | 1012.5 hPa | 0 mm | 3.13 m/s, 304° | 171 W/m² | - |
| 1777988820 | 20° C | 61% | 1012.5 hPa | 0 mm | 4.92 m/s, 273° | 134 W/m² | - |
| 1777988518 | 19.44° C | 62% | 1012.6 hPa | 0 mm | 4.92 m/s, 302° | 112 W/m² | - |
| 1777988215 | 19.44° C | 62% | 1012 hPa | 0 mm | 3.13 m/s, 313° | 91 W/m² | - |
| 1777987911 | 19.44° C | 63% | 1012.1 hPa | 0 mm | 2.68 m/s, 263° | 76 W/m² | - |
| 1777987607 | 19.44° C | 62% | 1012.3 hPa | 0 mm | 2.68 m/s, 12° | 70 W/m² | - |
| 1777987305 | 18.89° C | 64% | 1012.3 hPa | 0 mm | 2.24 m/s, 232° | 62 W/m² | - |
| 1777987001 | 18.89° C | 64% | 1012.5 hPa | 0 mm | 2.24 m/s, 289° | 56 W/m² | - |
| 1777986699 | 18.89° C | 63% | 1012.4 hPa | 0 mm | 1.34 m/s, 356° | 63 W/m² | - |
| 1777986397 | 18.33° C | 63% | 1012.6 hPa | 0 mm | 3.58 m/s, 331° | 71 W/m² | - |
| 1777986096 | 18.33° C | 63% | 1012.7 hPa | 0 mm | 2.68 m/s, 274° | 72 W/m² | - |
| 1777985791 | 18.89° C | 63% | 1012.5 hPa | 0 mm | 2.24 m/s, 296° | 92 W/m² | - |
| 1777985489 | 18.89° C | 62% | 1012.7 hPa | 0 mm | 2.24 m/s, 307° | 131 W/m² | - |
* Rain latest hour (hover to see other rain measurements)
** Current wind speed in m/s (hover to see current wind gust speed)